Flight Track Log - Related Links

Times and Time Zones

All times are in EDT time to prevent confusion due to time zone crossing. See the SWA1719 flight status page for this flight to view local times or setup timezone preferences in your user account.

Time Position Orientation Groundspeed Altitude Reporting Facility
EDT Latitude Longitude Course Direction KTS MPH feet Rate Location/Type
Fri 09:06:43 AM 35.0439 -106.5817 116° Southeast 163 188 6,100  Level Albuquerque Center
Fri 09:07:07 AM 35.0314 -106.5592 124° Southeast 183 211 6,900 1,906 Climbing Albuquerque Center
Fri 09:08:08 AM 34.9786 -106.5131 144° Southeast 267 307 8,800 2,274 Climbing Albuquerque Center
Fri 09:09:11 AM 34.8914 -106.5175 182° South 290 334 11,600 2,780 Climbing Albuquerque Center
Fri 09:10:11 AM 34.8031 -106.4769 159° South 357 411 14,500 3,124 Climbing Albuquerque Center
Fri 09:11:12 AM 34.7572 -106.3633 116° Southeast 376 433 17,900 2,803 Climbing Albuquerque Center
Fri 09:12:00 AM 34.8770 -106.2080 116° Southeast  Level Estimated
Fri 09:12:13 AM 34.7006 -106.2494 121° Southeast 388 447 20,200  Level Albuquerque Center
Fri 09:13:13 AM 34.6442 -106.1250 119° Southeast 407 468 22,800 2,529 Climbing Albuquerque Center
Fri 09:14:14 AM 34.5839 -105.9983 120° Southeast 422 486 25,300 2,311 Climbing Albuquerque Center
Fri 09:15:15 AM 34.5214 -105.8669 120° Southeast 439 505 27,500 1,983 Climbing Albuquerque Center
Fri 09:16:15 AM 34.4575 -105.7333 120° Southeast 451 519 29,300 1,736 Climbing Albuquerque Center
Fri 09:17:16 AM 34.3908 -105.5964 121° Southeast 464 534 31,000 1,574 Climbing Albuquerque Center
Fri 09:18:17 AM 34.3244 -105.4556 120° Southeast 474 545 32,500 1,574 Climbing Albuquerque Center
Fri 09:19:18 AM 34.2558 -105.3144 120° Southeast 481 554 34,200 1,488 Climbing Albuquerque Center
Fri 09:20:18 AM 34.1881 -105.1733 120° Southeast 482 555 35,500 1,388 Climbing Albuquerque Center
Fri 09:21:19 AM 34.1194 -105.0325 120° Southeast 483 556 37,000 1,033 Climbing Albuquerque Center
Fri 09:22:20 AM 34.0472 -104.8861 121° Southeast 495 570 37,600 738 Climbing Albuquerque Center
Fri 09:23:21 AM 33.9714 -104.7333 121° Southeast 506 582 38,500 694 Climbing Albuquerque Center
Fri 09:24:21 AM 33.8989 -104.5872 121° Southeast 508 585 39,000 248 Climbing Albuquerque Center
Fri 09:25:22 AM 33.8261 -104.4403 121° Southeast 511 588 39,000  Level Albuquerque Center
Fri 09:26:23 AM 33.7464 -104.2811 121° Southeast 515 593 39,000  Level Albuquerque Center
Fri 09:27:24 AM 33.6722 -104.1314 121° Southeast 518 596 39,000  Level Albuquerque Center
Fri 09:28:24 AM 33.5986 -103.9856 121° Southeast 513 590 39,000  Level Albuquerque Center
Fri 09:29:25 AM 33.5253 -103.8378 121° Southeast 514 592 39,000  Level Albuquerque Center
Fri 09:30:26 AM 33.4511 -103.6922 121° Southeast 512 589 39,000  Level Albuquerque Center
Fri 09:31:27 AM 33.3883 -103.5586 119° Southeast 514 592 39,000  Level Albuquerque Center
Fri 09:32:28 AM 33.3133 -103.4147 122° Southeast 513 590 39,000  Level Albuquerque Center
Fri 09:33:29 AM 33.2369 -103.2728 123° Southeast 511 588 39,000  Level Albuquerque Center
Fri 09:34:30 AM 33.1622 -103.1281 122° Southeast 511 588 39,000  Level Albuquerque Center
Fri 09:34:51 AM 33.1314 -103.0689 122° Southeast 514 592 39,000  Level Fort Worth Center
Fri 09:35:51 AM 33.0608 -102.9206 120° Southeast 514 592 39,000  Level Fort Worth Center
Fri 09:36:51 AM 32.9836 -102.7797 123° Southeast 514 592 39,000  Level Fort Worth Center
Fri 09:37:51 AM 32.9103 -102.6367 121° Southeast 514 592 39,000  Level Fort Worth Center
Fri 09:38:51 AM 32.8389 -102.4967 121° Southeast 509 586 39,000  Level Fort Worth Center
Fri 09:39:51 AM 32.7631 -102.3539 122° Southeast 509 586 39,000  Level Fort Worth Center
Fri 09:40:51 AM 32.6872 -102.2117 122° Southeast 514 592 39,000  Level Fort Worth Center
Fri 09:41:51 AM 32.6053 -102.0569 122° Southeast 514 592 39,000  Level Fort Worth Center
Fri 09:42:51 AM 32.5272 -101.9147 123° Southeast 514 592 39,000  Level Fort Worth Center
Fri 09:43:51 AM 32.4508 -101.7708 122° Southeast 514 592 39,000  Level Fort Worth Center
Fri 09:44:51 AM 32.3742 -101.6269 122° Southeast 514 592 39,000  Level Fort Worth Center
Fri 09:45:51 AM 32.2997 -101.4833 121° Southeast 514 592 39,000  Level Fort Worth Center
Fri 09:46:51 AM 32.2208 -101.3397 123° Southeast 514 592 39,000  Level Fort Worth Center
Fri 09:47:51 AM 32.1417 -101.1967 123° Southeast 514 592 39,000  Level Fort Worth Center
Fri 09:48:51 AM 32.0644 -101.0536 122° Southeast 514 592 39,000  Level Fort Worth Center
Fri 09:49:51 AM 31.9872 -100.9086 122° Southeast 514 592 39,000  Level Fort Worth Center
Fri 09:50:51 AM 31.9075 -100.7636 123° Southeast 514 592 39,000  Level Fort Worth Center
Fri 09:51:51 AM 31.8281 -100.6189 123° Southeast 521 600 39,000  Level Fort Worth Center
Fri 09:52:51 AM 31.7500 -100.4769 123° Southeast 521 600 39,000  Level Fort Worth Center
Fri 09:53:51 AM 31.6678 -100.3350 124° Southeast 521 600 39,000  Level Fort Worth Center
Fri 09:54:51 AM 31.5897 -100.1886 122° Southeast 516 594 39,000  Level Fort Worth Center
Fri 09:55:51 AM 31.5114 -100.0475 123° Southeast 516 594 39,000  Level Fort Worth Center
Fri 09:58:11 AM 31.3350 -99.7336 123° Southeast 524 603 39,000  Level Houston Center
Fri 09:59:13 AM 31.2542 -99.5900 123° Southeast 527 606 39,000  Level Houston Center
Fri 10:00:15 AM 31.1892 -99.4361 116° Southeast 534 615 39,000  Level Houston Center
Fri 10:01:17 AM 31.1456 -99.2289 104° East 546 628 39,000  Level Houston Center
Fri 10:02:18 AM 31.1117 -99.0683 104° East 541 623 39,000  Level Houston Center
Fri 10:03:20 AM 31.0764 -98.8969 103° East 540 621 39,000  Level Houston Center
Fri 10:04:22 AM 31.0397 -98.7269 104° East 536 617 39,000 -194 Level Houston Center
Fri 10:05:24 AM 30.9967 -98.5253 104° East 545 627 38,600 -634 Descending Houston Center
Fri 10:06:25 AM 30.9606 -98.3536 104° East 543 625 37,700 -780 Descending Houston Center
Fri 10:07:27 AM 30.9231 -98.1786 104° East 552 635 37,000 -339 Descending Houston Center
Fri 10:08:29 AM 30.8856 -98.0069 104° East 546 628 37,000  Level Houston Center
Fri 10:09:31 AM 30.8475 -97.8342 104° East 548 631 37,000  Level Houston Center
Fri 10:10:33 AM 30.8089 -97.6639 105° East 544 626 37,000  Level Houston Center
Fri 10:11:35 AM 30.7711 -97.4928 104° East 546 628 37,000 -823 Level Houston Center
Fri 10:12:37 AM 30.7494 -97.2867 97° East 565 650 35,300 -2,195 Descending Houston Center
Fri 10:13:38 AM 30.7467 -97.1047 91° East 569 655 32,500 -2,293 Descending Houston Center
Fri 10:14:40 AM 30.7447 -96.9275 91° East 547 629 30,600 -2,274 Descending Houston Center
Fri 10:15:42 AM 30.7444 -96.7581 90° East 527 606 27,800 -2,613 Descending Houston Center
Fri 10:16:44 AM 30.7444 -96.5858 90° East 530 610 25,200 -2,855 Descending Houston Center
Fri 10:17:46 AM 30.6872 -96.4553 117° Southeast 467 537 21,900 -3,242 Descending Houston Center
Fri 10:18:48 AM 30.5578 -96.4083 163° South 410 472 18,500 -2,516 Descending Houston Center
Fri 10:19:50 AM 30.4569 -96.3506 154° Southeast 401 461 16,700 -1,839 Descending Houston Center
Fri 10:20:52 AM 30.3619 -96.2942 153° Southeast 383 441 14,700 -1,935 Descending Houston Center
Fri 10:21:54 AM 30.2708 -96.2414 153° Southeast 365 420 12,700 -1,790 Descending Houston Center
Fri 10:22:56 AM 30.1819 -96.1931 155° Southeast 353 406 11,000 -1,030 Descending Houston Center
Fri 10:23:33 AM 30.1203 -96.1622 157° South 351 404 11,000  Level Houston Center
Fri 10:23:58 AM 30.0839 -96.1419 154° Southeast 352 405 11,000  Level Houston Center
Fri 10:24:34 AM 30.0300 -96.1144 156° South 354 407 11,000 -387 Level Houston Center
Fri 10:25:00 AM 29.9947 -96.0936 153° Southeast 352 405 10,600 -896 Descending Houston Center
Fri 10:25:41 AM 29.9417 -96.0403 139° Southeast 336 387 10,000 -581 Descending Houston Center
Fri 10:26:02 AM 29.9242 -96.0197 134° Southeast 340 391 10,000  Level Houston Center
Fri 10:26:30 AM 29.8925 -95.9808 133° Southeast 313 360 10,000  Level Houston Center
Fri 10:27:04 AM 29.8683 -95.9544 137° Southeast 315 362 10,000 -353 Level Houston Center
Fri 10:27:38 AM 29.8247 -95.9019 134° Southeast 307 353 9,600 -1,048 Descending Houston Center
Fri 10:28:07 AM 29.7975 -95.8692 134° Southeast 308 354 8,900 -1,574 Descending Houston Center
Fri 10:28:39 AM 29.7636 -95.8269 133° Southeast 309 356 8,000 -1,452 Descending Houston Center
Fri 10:29:09 AM 29.7375 -95.7978 136° Southeast 311 358 7,400 -1,180 Descending Houston Center
Fri 10:29:40 AM 29.7028 -95.7547 133° Southeast 313 360 6,800 -1,143 Descending Houston Center
Fri 10:30:12 AM 29.6781 -95.7264 135° Southeast 311 358 6,200 -774 Descending Houston Center
Fri 10:30:42 AM 29.6439 -95.6847 133° Southeast 296 341 6,000 -197 Descending Houston Center
Fri 10:31:13 AM 29.6208 -95.6594 136° Southeast 300 345 6,000  Level Houston Center
Fri 10:31:37 AM 29.6025 -95.6197 118° Southeast 259 298 6,000 -387 Level Houston Center
Fri 10:32:15 AM 29.5956 -95.5836 102° East 260 299 5,600 -1,059 Descending Houston Center
Fri 10:32:45 AM 29.5842 -95.5331 105° East 245 282 4,800 -1,452 Descending Houston Center
Fri 10:33:17 AM 29.5753 -95.4919 104° East 250 288 4,100 -1,300 Descending Houston Center
Fri 10:33:45 AM 29.5667 -95.4558 105° East 239 275 3,500 -871 Descending Houston Center
Fri 10:34:19 AM 29.5597 -95.4217 103° East 237 273 3,200 -750 Descending Houston Center
Fri 10:34:41 AM 29.5531 -95.3975 108° East 199 229 2,800 -968 Descending Houston Center
Fri 10:35:21 AM 29.5633 -95.3694 67° East 196 226 2,200 -885 Descending Houston Center
Fri 10:35:42 AM 29.5744 -95.3567 45° Northeast 119 137 1,900 -571 Descending Houston Center
Fri 10:36:24 AM 29.5869 -95.3436 42° Northeast 145 167 1,600 -590 Descending Houston Center
Fri 10:36:43 AM 29.5975 -95.3322 43° Northeast 114 131 1,300 -677 Descending Houston Center
Fri 10:37:26 AM 29.6108 -95.3175 44° Northeast 126 145 900 -716 Descending Houston Center
Fri 10:37:50 AM 29.6242 -95.3025 44° Northeast 126 145 500 -677 Descending Houston Center
Fri 10:38:28 AM 29.6369 -95.2883 44° Northeast 126 145 200 -474 Descending Houston Center
Fri 10:40:00 AM 29.6454 -95.2789 51° Northeast  Level Estimated

Login

Don't have an account? Register now (free) for customized features, flight alerts, and more!